Time;durP1;ratioP1;P1;durP2;ratioP2;P2;SDS_P1;SDS_P2;PMS_P1;PMS_P2;Temp;Humidity;BMP_temperature;BMP_pressure;BME280_temperature;BME280_humidity;BME280_pressure;Samples;Min_cycle;Max_cycle;Signal;HPM_P1;HPM_P2
2023/04/05 00:00:14;;;;;;;11.35;4.22;;;;;;;;;;5040585;28;20040;-80
2023/04/05 00:02:46;;;;;;;6.63;3.00;;;;;;;;;;5032361;28;20057;-80
2023/04/05 00:05:11;;;;;;;14.65;3.17;;;;;;;;;;5035807;28;20120;-80
2023/04/05 00:07:53;;;;;;;9.40;3.55;;;;;;;;;;5035418;28;20493;-80
2023/04/05 00:10:25;;;;;;;7.72;2.90;;;;;;;;;;5027801;28;20124;-80
2023/04/05 00:12:50;;;;;;;9.15;3.17;;;;;;;;;;5026325;28;20056;-80
2023/04/05 00:15:22;;;;;;;11.48;3.40;;;;;;;;;;5046900;28;20041;-80
2023/04/05 00:17:54;;;;;;;7.38;3.33;;;;;;;;;;5030495;28;20080;-80
2023/04/05 00:20:20;;;;;;;13.98;2.95;;;;;;;;;;5047697;28;20060;-79
2023/04/05 00:22:51;;;;;;;10.23;3.42;;;;;;;;;;5042264;28;20392;-79
2023/04/05 00:25:23;;;;;;;11.00;3.53;;;;;;;;;;5048648;28;20397;-80
2023/04/05 00:27:49;;;;;;;5.55;3.00;;;;;;;;;;5048859;28;20036;-80
2023/04/05 00:30:22;;;;;;;10.18;3.38;;;;;;;;;;5048168;28;20362;-80
2023/04/05 00:32:53;;;;;;;8.95;3.38;;;;;;;;;;5039863;28;20044;-80
2023/04/05 00:35:19;;;;;;;8.13;3.40;;;;;;;;;;5036832;28;20508;-80
2023/04/05 00:37:50;;;;;;;10.50;2.35;;;;;;;;;;5035064;28;20033;-80
2023/04/05 00:40:22;;;;;;;7.45;2.10;;;;;;;;;;5050592;28;20066;-79
2023/04/05 00:42:48;;;;;;;5.70;2.13;;;;;;;;;;5036643;28;20095;-80
2023/04/05 00:45:20;;;;;;;7.97;2.70;;;;;;;;;;5038933;28;20469;-80
2023/04/05 00:47:52;;;;;;;5.88;2.33;;;;;;;;;;5039456;28;20038;-80
2023/04/05 00:50:18;;;;;;;9.07;2.20;;;;;;;;;;5040078;28;20090;-79
2023/04/05 00:52:50;;;;;;;5.82;2.15;;;;;;;;;;5041816;28;20107;-80
2023/04/05 00:55:22;;;;;;;10.32;2.53;;;;;;;;;;5043098;28;20037;-79
2023/04/05 00:57:48;;;;;;;6.50;2.20;;;;;;;;;;5041326;28;20048;-80
2023/04/05 01:00:21;;;;;;;6.28;2.72;;;;;;;;;;5043093;28;20087;-80
2023/04/05 01:03:01;;;;;;;8.33;3.43;;;;;;;;;;5024679;28;20428;-80
2023/04/05 01:05:50;;;;;;;6.60;2.38;;;;;;;;;;5049108;28;20281;-80
2023/04/05 01:08:48;;;;;;;6.53;1.88;;;;;;;;;;5032400;28;20052;-80
2023/04/05 01:11:21;;;;;;;9.00;2.38;;;;;;;;;;5027610;28;20405;-80
2023/04/05 01:13:59;;;;;;;9.03;2.30;;;;;;;;;;5035557;28;20037;-80
2023/04/05 01:16:31;;;;;;;6.20;2.85;;;;;;;;;;5039399;28;20087;-80
2023/04/05 01:19:03;;;;;;;7.22;2.67;;;;;;;;;;5037967;28;20047;-80
2023/04/05 01:22:13;;;;;;;10.30;3.47;;;;;;;;;;5044820;28;20040;-80
2023/04/05 01:25:09;;;;;;;9.63;3.10;;;;;;;;;;5033733;28;20041;-80
2023/04/05 01:28:01;;;;;;;12.40;3.13;;;;;;;;;;5036071;28;20036;-79
2023/04/05 01:30:41;;;;;;;11.45;3.22;;;;;;;;;;5048684;28;20036;-80
2023/04/05 01:33:45;;;;;;;9.25;3.00;;;;;;;;;;5040436;28;20048;-80
2023/04/05 01:36:32;;;;;;;6.22;2.50;;;;;;;;;;5033807;28;20037;-80
2023/04/05 01:39:06;;;;;;;7.22;2.25;;;;;;;;;;5044564;28;20489;-79
2023/04/05 01:41:39;;;;;;;7.95;2.10;;;;;;;;;;5022604;28;20504;-79
2023/04/05 01:44:05;;;;;;;9.43;2.90;;;;;;;;;;5037392;28;20037;-80
2023/04/05 01:46:37;;;;;;;7.55;2.70;;;;;;;;;;5035035;28;20432;-79
2023/04/05 01:49:09;;;;;;;7.95;2.30;;;;;;;;;;5046917;28;20068;-79
2023/04/05 01:51:35;;;;;;;6.38;2.30;;;;;;;;;;5032051;28;20033;-80
2023/04/05 01:54:07;;;;;;;9.38;2.53;;;;;;;;;;5042645;28;20481;-80
2023/04/05 01:56:39;;;;;;;7.30;2.53;;;;;;;;;;5047113;28;20033;-79
2023/04/05 01:59:05;;;;;;;7.25;2.22;;;;;;;;;;5045699;28;20045;-80
2023/04/05 02:01:36;;;;;;;5.07;2.13;;;;;;;;;;5042802;28;20056;-79
2023/04/05 02:04:08;;;;;;;6.55;2.60;;;;;;;;;;5037757;28;20551;-79
2023/04/05 02:06:34;;;;;;;6.38;2.38;;;;;;;;;;5042838;28;20025;-79
2023/04/05 02:09:06;;;;;;;8.77;2.50;;;;;;;;;;5041734;28;20032;-80
2023/04/05 02:11:38;;;;;;;8.57;2.50;;;;;;;;;;5043395;28;20079;-80
2023/04/05 02:14:04;;;;;;;6.28;2.40;;;;;;;;;;5038016;28;20047;-79
2023/04/05 02:16:35;;;;;;;7.85;2.55;;;;;;;;;;5038233;28;20100;-80
2023/04/05 02:19:07;;;;;;;8.63;2.78;;;;;;;;;;5033045;28;20401;-79
2023/04/05 02:21:33;;;;;;;7.75;2.88;;;;;;;;;;5045781;28;20069;-79
2023/04/05 02:24:05;;;;;;;7.10;2.65;;;;;;;;;;5044366;28;20501;-79
2023/04/05 02:26:37;;;;;;;7.15;3.22;;;;;;;;;;5037921;28;20049;-79
2023/04/05 02:29:03;;;;;;;4.93;2.42;;;;;;;;;;5042640;28;20061;-79
2023/04/05 02:31:34;;;;;;;7.45;2.78;;;;;;;;;;5044241;28;20061;-79
2023/04/05 02:34:08;;;;;;;12.68;2.83;;;;;;;;;;5035347;28;20096;-79
2023/04/05 02:36:33;;;;;;;6.95;3.00;;;;;;;;;;5038938;28;20069;-79
2023/04/05 02:39:05;;;;;;;8.48;2.90;;;;;;;;;;5039987;28;20490;-80
2023/04/05 02:41:37;;;;;;;12.55;2.60;;;;;;;;;;5042736;28;20072;-80
2023/04/05 02:44:03;;;;;;;8.82;2.67;;;;;;;;;;5038768;28;20477;-79
2023/04/05 02:46:34;;;;;;;8.30;2.63;;;;;;;;;;5049965;28;20033;-79
2023/04/05 02:49:06;;;;;;;11.63;2.45;;;;;;;;;;5037688;28;20094;-79
2023/04/05 02:51:34;;;;;;;11.18;2.60;;;;;;;;;;5038608;28;20386;-80
2023/04/05 02:54:09;;;;;;;6.22;2.50;;;;;;;;;;5042787;28;20037;-79
2023/04/05 02:56:41;;;;;;;5.35;2.67;;;;;;;;;;5041939;28;20412;-79
2023/04/05 02:59:07;;;;;;;9.73;2.30;;;;;;;;;;5043829;28;20056;-79
2023/04/05 03:01:42;;;;;;;9.45;2.50;;;;;;;;;;5041282;28;20072;-79
2023/04/05 03:04:16;;;;;;;4.93;2.40;;;;;;;;;;5039547;28;20029;-80
2023/04/05 03:06:51;;;;;;;8.50;2.45;;;;;;;;;;5037295;28;20119;-79
2023/04/05 03:09:22;;;;;;;8.07;2.72;;;;;;;;;;5037792;28;20033;-79
2023/04/05 03:11:54;;;;;;;6.05;2.45;;;;;;;;;;5045674;28;20054;-79
2023/04/05 03:14:20;;;;;;;10.93;2.70;;;;;;;;;;5040040;28;20036;-80
2023/04/05 03:16:51;;;;;;;5.20;2.55;;;;;;;;;;5050181;28;20051;-80
2023/04/05 03:19:25;;;;;;;6.20;2.30;;;;;;;;;;5037568;28;20034;-79
2023/04/05 03:21:50;;;;;;;6.22;2.40;;;;;;;;;;5046017;28;20044;-79
2023/04/05 03:24:23;;;;;;;11.20;3.97;;;;;;;;;;5038037;28;20041;-80
2023/04/05 03:26:55;;;;;;;20.90;6.68;;;;;;;;;;5037311;28;20065;-80
2023/04/05 03:29:20;;;;;;;12.10;3.90;;;;;;;;;;5041602;28;20400;-79
2023/04/05 03:31:52;;;;;;;7.80;3.72;;;;;;;;;;5049535;28;20082;-80
2023/04/05 03:34:29;;;;;;;5.95;2.33;;;;;;;;;;5039042;28;20045;-80
2023/04/05 03:37:01;;;;;;;6.60;2.35;;;;;;;;;;5032534;28;20041;-79
2023/04/05 03:39:33;;;;;;;10.30;2.50;;;;;;;;;;5046452;28;20044;-79
2023/04/05 03:41:58;;;;;;;9.90;2.97;;;;;;;;;;5035736;28;20045;-80
2023/04/05 03:44:30;;;;;;;6.22;3.28;;;;;;;;;;5033028;28;20041;-79
2023/04/05 03:47:03;;;;;;;10.00;4.25;;;;;;;;;;5041419;28;20037;-80
2023/04/05 03:49:28;;;;;;;11.48;4.82;;;;;;;;;;5039122;28;20115;-79
2023/04/05 03:52:00;;;;;;;11.40;5.18;;;;;;;;;;5038327;28;20069;-79
2023/04/05 03:54:32;;;;;;;10.32;3.88;;;;;;;;;;5026421;28;20094;-79
2023/04/05 03:56:57;;;;;;;11.70;5.30;;;;;;;;;;5047741;28;20040;-80
2023/04/05 03:59:29;;;;;;;8.55;3.80;;;;;;;;;;5037843;28;20382;-80
2023/04/05 04:02:01;;;;;;;15.85;5.13;;;;;;;;;;5036635;28;20111;-80
2023/04/05 04:04:26;;;;;;;16.17;6.18;;;;;;;;;;5040759;28;20076;-80
2023/04/05 04:06:58;;;;;;;18.38;7.53;;;;;;;;;;5042780;28;20446;-79
2023/04/05 04:09:30;;;;;;;18.08;7.53;;;;;;;;;;5039516;28;20040;-79
2023/04/05 04:11:56;;;;;;;19.15;8.27;;;;;;;;;;5040106;28;20067;-80
2023/04/05 04:14:27;;;;;;;19.83;9.10;;;;;;;;;;5046940;28;20112;-80
2023/04/05 04:16:59;;;;;;;18.33;8.07;;;;;;;;;;5043611;28;20486;-80
2023/04/05 04:19:24;;;;;;;19.42;7.85;;;;;;;;;;5036070;28;20550;-79
2023/04/05 04:21:58;;;;;;;19.48;8.75;;;;;;;;;;5045842;28;20033;-79
2023/04/05 04:24:31;;;;;;;15.47;8.90;;;;;;;;;;5042738;28;20045;-79
2023/04/05 04:27:05;;;;;;;21.38;8.77;;;;;;;;;;5047262;28;20270;-80
2023/04/05 04:29:45;;;;;;;21.13;9.60;;;;;;;;;;5045110;28;20045;-79
2023/04/05 04:32:25;;;;;;;27.08;9.23;;;;;;;;;;5044000;28;20045;-79
2023/04/05 04:34:57;;;;;;;27.17;9.43;;;;;;;;;;5046229;28;20043;-80
2023/04/05 04:37:29;;;;;;;18.15;8.00;;;;;;;;;;5043135;28;20064;-79
2023/04/05 04:39:55;;;;;;;17.27;8.52;;;;;;;;;;5055256;28;20037;-80
2023/04/05 04:42:32;;;;;;;16.83;7.85;;;;;;;;;;5043827;28;20030;-79
2023/04/05 04:45:05;;;;;;;17.02;7.97;;;;;;;;;;5039778;28;20033;-80
2023/04/05 04:47:36;;;;;;;20.55;7.95;;;;;;;;;;5037658;28;20041;-80
2023/04/05 04:50:03;;;;;;;19.85;7.85;;;;;;;;;;5040668;28;20045;-80
2023/04/05 04:52:35;;;;;;;17.15;8.02;;;;;;;;;;5047422;28;20041;-80
2023/04/05 04:55:07;;;;;;;18.27;8.38;;;;;;;;;;5049681;28;20039;-80
2023/04/05 04:57:32;;;;;;;21.45;7.63;;;;;;;;;;5043374;28;20044;-80
2023/04/05 05:00:12;;;;;;;18.42;7.22;;;;;;;;;;5042713;28;20037;-80
2023/04/05 05:02:44;;;;;;;17.92;7.10;;;;;;;;;;5045446;28;20116;-80
2023/04/05 05:05:17;;;;;;;13.27;7.10;;;;;;;;;;5047604;28;20040;-80
2023/04/05 05:07:42;;;;;;;19.00;7.28;;;;;;;;;;5043776;28;20080;-80
2023/04/05 05:10:17;;;;;;;16.65;7.22;;;;;;;;;;5037140;28;20052;-80
2023/04/05 05:12:50;;;;;;;16.27;6.75;;;;;;;;;;5035190;28;20088;-80
2023/04/05 05:15:15;;;;;;;17.42;6.97;;;;;;;;;;5046541;28;20033;-79
2023/04/05 05:17:51;;;;;;;19.85;6.95;;;;;;;;;;5042415;28;20083;-80
2023/04/05 05:20:27;;;;;;;18.98;7.18;;;;;;;;;;5036411;28;20116;-80
2023/04/05 05:23:02;;;;;;;21.83;7.90;;;;;;;;;;5048445;28;20528;-80
2023/04/05 05:25:35;;;;;;;15.70;7.10;;;;;;;;;;5042442;28;20037;-80
2023/04/05 05:28:00;;;;;;;16.80;7.15;;;;;;;;;;5042203;28;20481;-80
2023/04/05 05:30:32;;;;;;;17.70;6.85;;;;;;;;;;5036857;28;20033;-80
2023/04/05 05:33:04;;;;;;;16.58;7.40;;;;;;;;;;5037576;28;20041;-79
2023/04/05 05:35:30;;;;;;;19.13;7.65;;;;;;;;;;5044355;28;20041;-80
2023/04/05 05:38:01;;;;;;;22.88;7.53;;;;;;;;;;5044535;28;20037;-80
2023/04/05 05:40:33;;;;;;;17.73;8.15;;;;;;;;;;5037674;28;20037;-80
2023/04/05 05:42:59;;;;;;;21.00;8.70;;;;;;;;;;5039493;28;20037;-80
2023/04/05 05:45:31;;;;;;;18.00;7.55;;;;;;;;;;5044613;28;20083;-80
2023/04/05 05:48:03;;;;;;;26.55;9.30;;;;;;;;;;5049903;28;20114;-80
2023/04/05 05:50:31;;;;;;;14.07;8.43;;;;;;;;;;5044559;28;20087;-80
2023/04/05 05:53:06;;;;;;;17.17;8.38;;;;;;;;;;5036733;28;20030;-80
2023/04/05 05:55:38;;;;;;;19.38;9.98;;;;;;;;;;5047137;28;20040;-80
2023/04/05 05:58:04;;;;;;;22.02;9.45;;;;;;;;;;5049984;28;20041;-79
2023/04/05 06:00:35;;;;;;;17.13;9.00;;;;;;;;;;5049988;28;20037;-80
2023/04/05 06:03:08;;;;;;;20.00;8.25;;;;;;;;;;5027629;28;20107;-80
2023/04/05 06:05:34;;;;;;;19.10;9.43;;;;;;;;;;5037805;28;20036;-80
2023/04/05 06:08:05;;;;;;;15.65;8.75;;;;;;;;;;5042146;28;20037;-80
2023/04/05 06:10:37;;;;;;;24.02;9.25;;;;;;;;;;5039660;28;20037;-80
2023/04/05 06:13:03;;;;;;;18.60;10.20;;;;;;;;;;5041723;28;20076;-80
2023/04/05 06:15:35;;;;;;;17.58;8.80;;;;;;;;;;5047431;28;20068;-80
2023/04/05 06:18:07;;;;;;;19.98;8.93;;;;;;;;;;5039319;28;20038;-80
2023/04/05 06:20:33;;;;;;;19.10;9.05;;;;;;;;;;5035429;28;20052;-80
2023/04/05 06:23:04;;;;;;;16.52;8.95;;;;;;;;;;5037487;28;20033;-80
2023/04/05 06:25:36;;;;;;;25.98;9.23;;;;;;;;;;5038765;28;20108;-80
2023/04/05 06:28:03;;;;;;;19.20;9.63;;;;;;;;;;5047481;28;20110;-80
2023/04/05 06:30:34;;;;;;;17.20;9.35;;;;;;;;;;5037527;28;20465;-80
2023/04/05 06:33:06;;;;;;;20.10;9.88;;;;;;;;;;5043741;28;20069;-80
2023/04/05 06:35:32;;;;;;;23.20;10.25;;;;;;;;;;5045510;28;20119;-80
2023/04/05 06:38:03;;;;;;;21.40;9.95;;;;;;;;;;5041849;28;20117;-80
2023/04/05 06:40:35;;;;;;;17.85;9.82;;;;;;;;;;5046857;28;20044;-80
2023/04/05 06:43:01;;;;;;;23.05;11.27;;;;;;;;;;5032213;28;20119;-80
2023/04/05 06:45:32;;;;;;;17.20;9.70;;;;;;;;;;5046426;28;20109;-80
2023/04/05 06:48:05;;;;;;;22.33;9.32;;;;;;;;;;5035332;28;20037;-80
2023/04/05 06:50:30;;;;;;;23.75;9.82;;;;;;;;;;5050489;28;20124;-80
2023/04/05 06:53:03;;;;;;;26.48;11.02;;;;;;;;;;5050899;28;20448;-80
2023/04/05 06:55:35;;;;;;;15.27;10.02;;;;;;;;;;5042779;28;20033;-80
2023/04/05 06:58:01;;;;;;;18.40;9.98;;;;;;;;;;5048718;28;20037;-80
2023/04/05 07:00:32;;;;;;;17.27;9.77;;;;;;;;;;5047474;28;20047;-80
2023/04/05 07:03:05;;;;;;;22.65;10.85;;;;;;;;;;5047052;28;20084;-80
2023/04/05 07:05:30;;;;;;;18.95;11.15;;;;;;;;;;5037713;28;20566;-80
2023/04/05 07:08:02;;;;;;;22.45;11.02;;;;;;;;;;5037427;28;20101;-80
2023/04/05 07:10:35;;;;;;;29.17;13.98;;;;;;;;;;5043252;28;20112;-80
2023/04/05 07:13:00;;;;;;;27.38;12.73;;;;;;;;;;5032479;28;20045;-80
2023/04/05 07:15:32;;;;;;;26.10;9.85;;;;;;;;;;5039298;28;20025;-80
2023/04/05 07:18:04;;;;;;;24.30;11.25;;;;;;;;;;5037522;28;20045;-80
2023/04/05 07:20:30;;;;;;;27.67;10.32;;;;;;;;;;5043970;28;20116;-80
2023/04/05 07:23:01;;;;;;;24.48;11.23;;;;;;;;;;5050013;28;20112;-80
2023/04/05 07:25:33;;;;;;;19.67;9.48;;;;;;;;;;5037076;28;20033;-80
2023/04/05 07:27:59;;;;;;;22.65;9.23;;;;;;;;;;5034315;28;20132;-80
2023/04/05 07:30:32;;;;;;;23.48;10.30;;;;;;;;;;5044102;28;20112;-80
2023/04/05 07:33:04;;;;;;;19.20;9.45;;;;;;;;;;5033937;28;20037;-80
2023/04/05 07:35:30;;;;;;;19.10;10.45;;;;;;;;;;5040606;28;20584;-80
2023/04/05 07:38:02;;;;;;;23.30;9.80;;;;;;;;;;5048499;28;20111;-80
2023/04/05 07:40:34;;;;;;;22.13;9.90;;;;;;;;;;5029604;28;20550;-80
2023/04/05 07:43:00;;;;;;;26.00;10.38;;;;;;;;;;5051118;28;20043;-80
2023/04/05 07:45:31;;;;;;;24.90;10.38;;;;;;;;;;5051855;28;20381;-80
2023/04/05 07:48:03;;;;;;;29.83;9.90;;;;;;;;;;5044847;28;20041;-80
2023/04/05 07:50:29;;;;;;;22.38;9.50;;;;;;;;;;5047334;28;20048;-77
2023/04/05 07:53:01;;;;;;;18.55;8.98;;;;;;;;;;5044564;28;20029;-80
2023/04/05 07:55:36;;;;;;;20.27;9.10;;;;;;;;;;5019051;28;20033;-79
2023/04/05 07:58:09;;;;;;;19.98;8.27;;;;;;;;;;5050884;28;20551;-79
2023/04/05 08:00:41;;;;;;;21.20;10.18;;;;;;;;;;5033580;28;20041;-80
2023/04/05 08:03:07;;;;;;;15.77;8.88;;;;;;;;;;5030114;28;20091;-80
2023/04/05 08:05:38;;;;;;;18.45;9.63;;;;;;;;;;5035704;28;20041;-80
2023/04/05 08:08:10;;;;;;;16.05;9.25;;;;;;;;;;5029799;28;20080;-80
2023/04/05 08:10:45;;;;;;;16.45;8.48;;;;;;;;;;5028909;28;20444;-80
2023/04/05 08:13:17;;;;;;;20.73;8.52;;;;;;;;;;5022556;28;20167;-80
2023/04/05 08:15:43;;;;;;;22.75;9.05;;;;;;;;;;5029853;28;20041;-80
2023/04/05 08:18:14;;;;;;;19.35;8.75;;;;;;;;;;5035082;28;20032;-80
2023/04/05 08:20:50;;;;;;;18.48;9.13;;;;;;;;;;5030684;28;20214;-80
2023/04/05 08:23:22;;;;;;;20.77;10.30;;;;;;;;;;5032672;28;20033;-79
2023/04/05 08:25:54;;;;;;;18.13;10.32;;;;;;;;;;5036668;28;20037;-80
2023/04/05 08:28:20;;;;;;;21.75;12.35;;;;;;;;;;5021997;28;20515;-79
2023/04/05 08:30:53;;;;;;;21.27;11.68;;;;;;;;;;5037169;28;20061;-79
2023/04/05 08:33:29;;;;;;;22.67;12.40;;;;;;;;;;5034040;28;20134;-79
2023/04/05 08:36:02;;;;;;;22.15;12.45;;;;;;;;;;5035773;28;20064;-79
2023/04/05 08:38:34;;;;;;;25.15;12.20;;;;;;;;;;5036013;28;20049;-79
2023/04/05 08:41:14;;;;;;;24.02;11.82;;;;;;;;;;5030847;28;20045;-79
2023/04/05 08:43:55;;;;;;;26.48;12.88;;;;;;;;;;5036894;28;20485;-79
2023/04/05 08:46:27;;;;;;;21.80;11.48;;;;;;;;;;5037376;28;20385;-80
2023/04/05 08:49:05;;;;;;;27.42;11.48;;;;;;;;;;5039187;28;20455;-80
2023/04/05 08:51:40;;;;;;;18.90;10.95;;;;;;;;;;5030877;28;20045;-79
2023/04/05 08:54:13;;;;;;;21.05;10.75;;;;;;;;;;5025723;28;20179;-80
2023/04/05 08:56:45;;;;;;;23.13;12.23;;;;;;;;;;5034020;28;20037;-80
2023/04/05 08:59:11;;;;;;;22.15;11.05;;;;;;;;;;5042108;28;20480;-80
2023/04/05 09:01:47;;;;;;;24.20;11.63;;;;;;;;;;5029063;28;20048;-80
2023/04/05 09:04:26;;;;;;;18.85;10.88;;;;;;;;;;5037003;28;20094;-79
2023/04/05 09:06:58;;;;;;;22.60;11.38;;;;;;;;;;5036169;28;20056;-80
2023/04/05 09:09:23;;;;;;;21.75;11.55;;;;;;;;;;5046183;28;20477;-79
2023/04/05 09:11:56;;;;;;;18.60;10.55;;;;;;;;;;5041006;28;20056;-79
2023/04/05 09:14:29;;;;;;;23.55;10.68;;;;;;;;;;5029610;28;20064;-80
2023/04/05 09:16:55;;;;;;;18.40;9.43;;;;;;;;;;5035286;28;20049;-79
2023/04/05 09:19:26;;;;;;;21.35;10.43;;;;;;;;;;5041226;28;20043;-79
2023/04/05 09:21:59;;;;;;;30.23;11.45;;;;;;;;;;5045995;28;20515;-80
2023/04/05 09:24:42;;;;;;;25.63;11.10;;;;;;;;;;5037772;28;20052;-80
2023/04/05 09:27:16;;;;;;;18.23;9.60;;;;;;;;;;5043067;28;20091;-80
2023/04/05 09:29:51;;;;;;;20.33;9.65;;;;;;;;;;5032470;28;20818;-80
2023/04/05 09:32:26;;;;;;;23.00;10.50;;;;;;;;;;5033851;28;20904;-80
2023/04/05 09:35:03;;;;;;;21.10;10.15;;;;;;;;;;5035991;28;20447;-80
2023/04/05 09:37:34;;;;;;;19.98;10.25;;;;;;;;;;5038500;28;20064;-80
2023/04/05 09:40:13;;;;;;;18.48;10.13;;;;;;;;;;5044078;28;20393;-80
2023/04/05 09:42:45;;;;;;;19.15;10.32;;;;;;;;;;5038711;28;20119;-79
2023/04/05 09:45:17;;;;;;;20.77;10.25;;;;;;;;;;5037273;28;20049;-80
2023/04/05 09:47:58;;;;;;;27.38;11.25;;;;;;;;;;5029565;28;20036;-80
2023/04/05 09:50:30;;;;;;;19.90;10.70;;;;;;;;;;5032565;28;20444;-80
2023/04/05 09:53:17;;;;;;;25.38;10.98;;;;;;;;;;5034845;28;20045;-80
2023/04/05 09:55:49;;;;;;;20.45;10.73;;;;;;;;;;5047637;28;20407;-79
2023/04/05 09:58:21;;;;;;;21.90;10.90;;;;;;;;;;5046565;28;20122;-79
2023/04/05 10:00:57;;;;;;;18.65;9.93;;;;;;;;;;5045078;28;20045;-79
2023/04/05 10:03:35;;;;;;;20.13;10.50;;;;;;;;;;5036591;28;20472;-79
2023/04/05 10:06:01;;;;;;;17.75;10.30;;;;;;;;;;5022797;28;20132;-79
2023/04/05 10:08:26;;;;;;;23.63;10.55;;;;;;;;;;5039455;28;20448;-79
2023/04/05 10:11:07;;;;;;;23.35;10.73;;;;;;;;;;5038580;28;20080;-80
2023/04/05 10:13:33;;;;;;;21.13;10.45;;;;;;;;;;5031270;28;20058;-80
2023/04/05 10:16:07;;;;;;;17.60;9.82;;;;;;;;;;5025539;28;20044;-79
2023/04/05 10:18:48;;;;;;;19.58;9.25;;;;;;;;;;5035408;28;20052;-80
2023/04/05 10:21:22;;;;;;;18.17;10.10;;;;;;;;;;5031525;28;20041;-80
2023/04/05 10:24:01;;;;;;;16.27;9.15;;;;;;;;;;5029329;28;20926;-80
2023/04/05 10:26:48;;;;;;;17.58;9.80;;;;;;;;;;5028751;28;20195;-79
2023/04/05 10:29:25;;;;;;;18.55;10.48;;;;;;;;;;5020788;28;20029;-80
2023/04/05 10:32:03;;;;;;;15.20;9.32;;;;;;;;;;5027359;28;20049;-80
2023/04/05 10:34:48;;;;;;;20.15;10.23;;;;;;;;;;5031780;28;20045;-80
2023/04/05 10:37:41;;;;;;;17.65;9.90;;;;;;;;;;5033370;28;20045;-80
2023/04/05 10:40:13;;;;;;;17.38;9.07;;;;;;;;;;5027352;28;20435;-80
2023/04/05 10:42:46;;;;;;;16.23;9.02;;;;;;;;;;5015335;28;20377;-79
2023/04/05 10:45:14;;;;;;;15.25;9.10;;;;;;;;;;5031716;28;20044;-80
2023/04/05 10:48:01;;;;;;;15.57;8.35;;;;;;;;;;5029939;28;20041;-80
2023/04/05 10:50:26;;;;;;;18.10;9.80;;;;;;;;;;5031918;28;20068;-80
2023/04/05 10:52:52;;;;;;;14.48;8.48;;;;;;;;;;5014250;28;20037;-80
2023/04/05 10:55:31;;;;;;;16.40;7.88;;;;;;;;;;5031657;28;20045;-80
2023/04/05 10:57:57;;;;;;;17.52;8.45;;;;;;;;;;5037105;28;20041;-79
2023/04/05 11:00:23;;;;;;;14.50;7.10;;;;;;;;;;5027712;28;20477;-80
2023/04/05 11:03:01;;;;;;;13.13;6.95;;;;;;;;;;5029190;28;20033;-79
2023/04/05 11:05:34;;;;;;;13.25;7.28;;;;;;;;;;5030825;28;20052;-80
2023/04/05 11:08:15;;;;;;;14.15;7.20;;;;;;;;;;5033282;28;20497;-79
2023/04/05 11:10:40;;;;;;;15.73;7.32;;;;;;;;;;5033786;28;20029;-80
2023/04/05 11:13:07;;;;;;;14.00;6.93;;;;;;;;;;5038426;28;20069;-80
2023/04/05 11:15:46;;;;;;;12.85;6.68;;;;;;;;;;5033627;28;20048;-79
2023/04/05 11:18:18;;;;;;;14.95;7.97;;;;;;;;;;5021645;28;20389;-80
2023/04/05 11:21:12;;;;;;;15.52;7.85;;;;;;;;;;5027019;28;20044;-80
2023/04/05 11:24:02;;;;;;;15.48;8.20;;;;;;;;;;5029377;28;20029;-80
2023/04/05 11:26:52;;;;;;;12.43;6.97;;;;;;;;;;5029186;28;20033;-80
2023/04/05 11:29:19;;;;;;;14.18;7.30;;;;;;;;;;5032231;28;20034;-80
2023/04/05 11:32:06;;;;;;;14.70;7.72;;;;;;;;;;5041738;28;20025;-80
2023/04/05 11:34:36;;;;;;;12.57;7.00;;;;;;;;;;5030715;28;20041;-80
2023/04/05 11:37:15;;;;;;;17.27;8.18;;;;;;;;;;5037557;28;20029;-80
2023/04/05 11:39:41;;;;;;;12.90;6.93;;;;;;;;;;5026062;28;20043;-79
2023/04/05 11:42:24;;;;;;;12.85;6.82;;;;;;;;;;5034073;28;20037;-80
2023/04/05 11:44:52;;;;;;;14.02;7.70;;;;;;;;;;5015202;28;20046;-80
2023/04/05 11:47:34;;;;;;;15.60;7.43;;;;;;;;;;5043493;28;20043;-80
2023/04/05 11:50:00;;;;;;;11.30;6.85;;;;;;;;;;5040447;28;20045;-80
2023/04/05 11:52:38;;;;;;;12.38;6.28;;;;;;;;;;5040034;28;20036;-81
2023/04/05 11:55:05;;;;;;;12.82;6.80;;;;;;;;;;5019103;28;20172;-80
2023/04/05 11:57:30;;;;;;;13.27;7.25;;;;;;;;;;5033666;28;20472;-79
2023/04/05 12:00:10;;;;;;;15.02;8.40;;;;;;;;;;5040393;28;20039;-80
2023/04/05 12:02:36;;;;;;;14.85;7.85;;;;;;;;;;5037251;28;20111;-80
2023/04/05 12:05:01;;;;;;;16.63;8.05;;;;;;;;;;5037654;28;21304;-80
2023/04/05 12:07:39;;;;;;;17.33;8.95;;;;;;;;;;5038235;28;20113;-80
2023/04/05 12:10:08;;;;;;;16.00;9.30;;;;;;;;;;5041457;28;20048;-80
2023/04/05 12:12:47;;;;;;;18.65;9.38;;;;;;;;;;5035747;28;20064;-80
2023/04/05 12:15:16;;;;;;;17.65;10.43;;;;;;;;;;5023412;28;20068;-80
2023/04/05 12:17:56;;;;;;;17.38;10.48;;;;;;;;;;5035699;28;20028;-80
2023/04/05 12:20:23;;;;;;;18.15;9.18;;;;;;;;;;5032108;28;20103;-79
2023/04/05 12:22:55;;;;;;;20.70;10.68;;;;;;;;;;5020622;28;20030;-80
2023/04/05 12:25:28;;;;;;;20.33;10.32;;;;;;;;;;5032811;28;20041;-80
2023/04/05 12:27:53;;;;;;;17.05;10.05;;;;;;;;;;5036459;28;20083;-80
2023/04/05 12:30:26;;;;;;;16.67;10.73;;;;;;;;;;5031303;28;20033;-80
2023/04/05 12:33:01;;;;;;;19.42;9.75;;;;;;;;;;5031897;28;20044;-80
2023/04/05 12:35:34;;;;;;;22.17;10.57;;;;;;;;;;5037748;28;20052;-80
2023/04/05 12:38:11;;;;;;;16.45;9.13;;;;;;;;;;5036357;28;20095;-80
2023/04/05 12:40:42;;;;;;;16.98;8.77;;;;;;;;;;5021646;28;20041;-79
2023/04/05 12:43:09;;;;;;;18.33;10.10;;;;;;;;;;5026716;28;20079;-79
2023/04/05 12:45:42;;;;;;;16.10;9.82;;;;;;;;;;5036213;28;20048;-80
2023/04/05 12:48:20;;;;;;;20.25;9.82;;;;;;;;;;5050089;28;20045;-79
2023/04/05 12:50:54;;;;;;;15.68;9.05;;;;;;;;;;5032073;28;20033;-79
2023/04/05 12:53:27;;;;;;;16.25;8.48;;;;;;;;;;5047515;28;20037;-79
2023/04/05 12:56:00;;;;;;;15.45;8.25;;;;;;;;;;5028940;28;20045;-79
2023/04/05 12:58:34;;;;;;;18.15;7.55;;;;;;;;;;5026069;28;20041;-78
2023/04/05 13:00:59;;;;;;;14.57;7.10;;;;;;;;;;5036124;28;20037;-79
2023/04/05 13:03:32;;;;;;;14.35;7.10;;;;;;;;;;5035242;28;20063;-78
2023/04/05 13:06:05;;;;;;;11.15;6.80;;;;;;;;;;5030230;28;20045;-78
2023/04/05 13:08:30;;;;;;;13.88;7.38;;;;;;;;;;5035757;28;20029;-79
2023/04/05 13:11:02;;;;;;;11.57;6.53;;;;;;;;;;5038791;28;20496;-78
2023/04/05 13:13:34;;;;;;;11.00;6.03;;;;;;;;;;5033689;28;20064;-78
2023/04/05 13:16:00;;;;;;;11.10;5.70;;;;;;;;;;5043541;28;20044;-78
2023/04/05 13:18:31;;;;;;;9.20;5.55;;;;;;;;;;5045766;28;20029;-79
2023/04/05 13:21:06;;;;;;;11.18;5.43;;;;;;;;;;5047671;28;20048;-78
2023/04/05 13:23:41;;;;;;;8.57;5.40;;;;;;;;;;5043356;28;20061;-79
2023/04/05 13:26:13;;;;;;;10.23;5.45;;;;;;;;;;5023769;28;20640;-78
2023/04/05 13:28:39;;;;;;;10.15;5.97;;;;;;;;;;5030203;28;20721;-79
2023/04/05 13:31:11;;;;;;;9.88;6.38;;;;;;;;;;5037572;28;20041;-78
2023/04/05 13:33:43;;;;;;;10.68;6.63;;;;;;;;;;5040373;28;20037;-78
2023/04/05 13:36:11;;;;;;;14.80;7.93;;;;;;;;;;5031474;28;20033;-78
2023/04/05 13:38:42;;;;;;;16.80;8.85;;;;;;;;;;5032527;28;20041;-78
2023/04/05 13:41:14;;;;;;;14.55;9.93;;;;;;;;;;5030349;28;20048;-79
2023/04/05 13:43:40;;;;;;;18.52;11.30;;;;;;;;;;5044003;28;20068;-78
2023/04/05 13:46:11;;;;;;;14.95;9.90;;;;;;;;;;5036795;28;20531;-79
2023/04/05 13:48:43;;;;;;;18.63;11.18;;;;;;;;;;5044336;28;20060;-79
2023/04/05 13:51:09;;;;;;;21.33;10.45;;;;;;;;;;5047488;28;20037;-79
2023/04/05 13:53:40;;;;;;;19.98;10.45;;;;;;;;;;5039078;28;20362;-79
2023/04/05 13:56:12;;;;;;;18.30;10.15;;;;;;;;;;5045023;28;20392;-80
2023/04/05 13:58:38;;;;;;;16.38;9.25;;;;;;;;;;5036427;28;20040;-79
2023/04/05 14:01:09;;;;;;;19.25;9.60;;;;;;;;;;5038509;28;20404;-79
2023/04/05 14:03:41;;;;;;;17.42;8.80;;;;;;;;;;5038690;28;20036;-79
2023/04/05 14:06:07;;;;;;;12.20;8.43;;;;;;;;;;5036462;28;20107;-78
2023/04/05 14:08:38;;;;;;;13.32;7.25;;;;;;;;;;5032515;28;20072;-79
2023/04/05 14:11:10;;;;;;;13.27;6.65;;;;;;;;;;5025529;28;20056;-79
2023/04/05 14:13:36;;;;;;;13.77;7.50;;;;;;;;;;5031078;28;20098;-79
2023/04/05 14:16:07;;;;;;;13.82;7.65;;;;;;;;;;5042459;28;20478;-78
2023/04/05 14:18:39;;;;;;;11.23;7.05;;;;;;;;;;5046474;28;20123;-78
2023/04/05 14:21:05;;;;;;;11.90;7.30;;;;;;;;;;5036525;28;20046;-78
2023/04/05 14:23:37;;;;;;;10.30;6.88;;;;;;;;;;5038672;28;20052;-79
2023/04/05 14:26:10;;;;;;;10.45;6.50;;;;;;;;;;5048417;28;20040;-79
2023/04/05 14:28:35;;;;;;;11.50;6.65;;;;;;;;;;5048252;28;20064;-79
2023/04/05 14:31:07;;;;;;;11.40;6.90;;;;;;;;;;5047816;28;20465;-79
2023/04/05 14:33:40;;;;;;;11.10;6.18;;;;;;;;;;5037071;28;20049;-79
2023/04/05 14:36:05;;;;;;;12.88;6.97;;;;;;;;;;5035117;28;20045;-79
2023/04/05 14:38:37;;;;;;;11.55;6.55;;;;;;;;;;5029880;28;20037;-78
2023/04/05 14:41:10;;;;;;;11.38;7.82;;;;;;;;;;5036068;28;20041;-79
2023/04/05 14:43:36;;;;;;;12.60;7.60;;;;;;;;;;5044058;28;20059;-79
2023/04/05 14:46:08;;;;;;;10.50;6.05;;;;;;;;;;5035876;28;20044;-79
2023/04/05 14:48:40;;;;;;;11.95;6.55;;;;;;;;;;5049257;28;20119;-78
2023/04/05 14:51:06;;;;;;;11.88;7.30;;;;;;;;;;5029527;28;20069;-79
2023/04/05 14:53:38;;;;;;;12.77;7.03;;;;;;;;;;5039099;28;20106;-78
2023/04/05 14:56:11;;;;;;;11.25;7.38;;;;;;;;;;5028150;28;20838;-78
2023/04/05 14:58:36;;;;;;;11.95;6.95;;;;;;;;;;5025386;28;20049;-77